Time;durP1;ratioP1;P1;durP2;ratioP2;P2;SDS_P1;SDS_P2;PMS_P1;PMS_P2;Temp;Humidity;BMP_temperature;BMP_pressure;BME280_temperature;BME280_humidity;BME280_pressure;Samples;Min_cycle;Max_cycle;Signal;HPM_P1;HPM_P2
2021/12/14 00:01:45;;;;;;;3.22;1.80;;;;;;;;;;5065269;28;20455;-83
2021/12/14 00:04:17;;;;;;;4.30;1.92;;;;;;;;;;5064139;28;20105;-83
2021/12/14 00:06:46;;;;;;;3.78;2.00;;;;;;;;;;5062988;28;20528;-83
2021/12/14 00:09:25;;;;;;;3.92;1.75;;;;;;;;;;5053377;28;20037;-83
2021/12/14 00:12:09;;;;;;;2.90;1.92;;;;;;;;;;5062449;28;20056;-84
2021/12/14 00:17:14;;;;;;;3.00;2.20;;;;;;;;;;5066713;28;20440;-82
2021/12/14 00:19:40;;;;;;;2.90;1.58;;;;;;;;;;5042925;28;20429;-82
2021/12/14 00:22:20;;;;;;;2.22;1.42;;;;;;;;;;5069197;28;20089;-81
2021/12/14 00:24:47;;;;;;;3.60;1.70;;;;;;;;;;5069666;28;20102;-81
2021/12/14 00:27:17;;;;;;;2.70;1.42;;;;;;;;;;5070623;28;20072;-81
2021/12/14 00:29:46;;;;;;;4.18;1.48;;;;;;;;;;5072209;28;20775;-86
2021/12/14 00:32:19;;;;;;;2.83;1.42;;;;;;;;;;5069566;28;20028;-85
2021/12/14 00:34:46;;;;;;;2.65;1.35;;;;;;;;;;5062746;28;20073;-85
2021/12/14 00:37:16;;;;;;;2.40;1.55;;;;;;;;;;5046177;28;20060;-85
2021/12/14 00:39:43;;;;;;;3.15;1.70;;;;;;;;;;5065520;28;20067;-86
2021/12/14 00:42:10;;;;;;;3.03;1.52;;;;;;;;;;5069324;28;20103;-85
2021/12/14 00:44:36;;;;;;;4.03;1.88;;;;;;;;;;5042741;28;20519;-82
2021/12/14 00:47:04;;;;;;;3.20;1.83;;;;;;;;;;5064028;28;20064;-83
2021/12/14 00:49:30;;;;;;;2.63;1.60;;;;;;;;;;5068607;28;20056;-81
2021/12/14 00:51:57;;;;;;;2.35;1.20;;;;;;;;;;5069816;28;20110;-82
2021/12/14 00:54:23;;;;;;;2.63;1.40;;;;;;;;;;5068005;28;20049;-82
2021/12/14 00:56:51;;;;;;;2.45;1.40;;;;;;;;;;5062778;28;20112;-85
2021/12/14 00:59:18;;;;;;;2.03;1.23;;;;;;;;;;5020793;28;20032;-86
2021/12/14 01:01:50;;;;;;;3.08;1.70;;;;;;;;;;5067846;28;20037;-85
2021/12/14 01:04:19;;;;;;;2.28;1.13;;;;;;;;;;5061809;28;20041;-85
2021/12/14 01:06:46;;;;;;;2.88;1.45;;;;;;;;;;5046205;28;20465;-83
2021/12/14 01:09:15;;;;;;;2.80;1.30;;;;;;;;;;5064988;28;20086;-83
2021/12/14 01:11:45;;;;;;;2.38;1.20;;;;;;;;;;5076328;28;20029;-87
2021/12/14 01:14:14;;;;;;;3.65;1.90;;;;;;;;;;5068416;28;20078;-87
2021/12/14 01:17:09;;;;;;;3.20;1.65;;;;;;;;;;5071396;28;20036;-86
2021/12/14 01:19:37;;;;;;;4.05;1.63;;;;;;;;;;5051157;28;20032;-84
2021/12/14 01:22:20;;;;;;;2.92;1.60;;;;;;;;;;5052779;28;20037;-86
2021/12/14 01:27:17;;;;;;;4.10;1.67;;;;;;;;;;5074205;28;20041;-86
2021/12/14 01:29:44;;;;;;;3.42;1.58;;;;;;;;;;5071688;28;20029;-81
2021/12/14 01:32:11;;;;;;;3.95;1.63;;;;;;;;;;5076381;28;20037;-84
2021/12/14 01:34:38;;;;;;;2.85;1.52;;;;;;;;;;5039109;28;20087;-84
2021/12/14 01:37:12;;;;;;;3.03;1.38;;;;;;;;;;5078734;28;20033;-84
2021/12/14 01:42:06;;;;;;;3.08;1.50;;;;;;;;;;5088306;28;20044;-84
2021/12/14 01:44:34;;;;;;;2.10;1.25;;;;;;;;;;5094975;28;20051;-84
2021/12/14 01:47:04;;;;;;;3.28;1.48;;;;;;;;;;5085664;28;21388;-89
2021/12/14 01:49:30;;;;;;;3.00;1.40;;;;;;;;;;5074798;28;20037;-85
2021/12/14 01:51:59;;;;;;;2.35;1.40;;;;;;;;;;5097187;28;20037;-84
2021/12/14 01:54:29;;;;;;;2.92;1.58;;;;;;;;;;5091060;28;20032;-84
2021/12/14 01:56:55;;;;;;;2.85;1.35;;;;;;;;;;5090110;28;20137;-85
2021/12/14 01:59:28;;;;;;;3.00;1.58;;;;;;;;;;5084855;28;20025;-84
2021/12/14 02:02:08;;;;;;;3.15;1.50;;;;;;;;;;5074597;28;20016;-84
2021/12/14 02:04:39;;;;;;;3.45;1.45;;;;;;;;;;5091086;28;20037;-85
2021/12/14 02:07:06;;;;;;;2.60;1.40;;;;;;;;;;5081167;28;20593;-85
2021/12/14 02:09:34;;;;;;;3.08;1.48;;;;;;;;;;5083284;28;20032;-84
2021/12/14 02:12:03;;;;;;;2.83;1.60;;;;;;;;;;5056324;28;20038;-85
2021/12/14 02:14:29;;;;;;;2.75;1.42;;;;;;;;;;5071729;28;20081;-84
2021/12/14 02:16:58;;;;;;;2.58;1.23;;;;;;;;;;5067696;28;20037;-84
2021/12/14 02:19:25;;;;;;;2.75;1.38;;;;;;;;;;5059491;28;20052;-84
2021/12/14 02:21:53;;;;;;;2.53;1.30;;;;;;;;;;5070639;28;20047;-84
2021/12/14 02:24:21;;;;;;;3.53;1.40;;;;;;;;;;5063198;28;20029;-83
2021/12/14 02:26:48;;;;;;;2.67;1.50;;;;;;;;;;5066412;28;20506;-81
2021/12/14 02:29:41;;;;;;;2.53;1.23;;;;;;;;;;5068029;28;20037;-82
2021/12/14 02:32:10;;;;;;;2.90;1.40;;;;;;;;;;5054816;28;21094;-83
2021/12/14 02:34:38;;;;;;;2.15;1.27;;;;;;;;;;5066350;28;21232;-81
2021/12/14 02:37:04;;;;;;;1.80;1.13;;;;;;;;;;5066578;28;20064;-82
2021/12/14 02:42:04;;;;;;;2.20;1.10;;;;;;;;;;5060055;28;20508;-84
2021/12/14 02:44:32;;;;;;;2.25;1.10;;;;;;;;;;5055184;28;20048;-84
2021/12/14 02:47:01;;;;;;;2.65;1.50;;;;;;;;;;5046205;28;20068;-82
2021/12/14 02:49:29;;;;;;;1.90;1.10;;;;;;;;;;5066477;28;20067;-82
2021/12/14 02:51:58;;;;;;;2.47;1.40;;;;;;;;;;5059967;28;20072;-81
2021/12/14 02:54:29;;;;;;;2.55;1.30;;;;;;;;;;5065915;28;20100;-82
2021/12/14 02:56:55;;;;;;;;;;;;;;;;;;5066230;28;20549;-82
2021/12/14 02:59:23;;;;;;;2.55;1.10;;;;;;;;;;5063436;28;19940;-84
2021/12/14 03:01:51;;;;;;;2.67;1.50;;;;;;;;;;5072048;28;20059;-82
2021/12/14 03:04:18;;;;;;;2.63;1.10;;;;;;;;;;5066667;28;20118;-85
2021/12/14 03:06:48;;;;;;;2.72;1.10;;;;;;;;;;5061234;28;20132;-83
2021/12/14 03:09:32;;;;;;;2.60;1.33;;;;;;;;;;5065632;28;20060;-84
2021/12/14 03:12:34;;;;;;;2.13;1.15;;;;;;;;;;5056269;28;20059;-84
2021/12/14 03:15:09;;;;;;;2.42;1.00;;;;;;;;;;5020612;28;21126;-86
2021/12/14 03:17:36;;;;;;;1.70;1.10;;;;;;;;;;5059526;28;20060;-78
2021/12/14 03:20:11;;;;;;;2.83;1.30;;;;;;;;;;5062362;28;20125;-84
2021/12/14 03:22:44;;;;;;;2.20;1.10;;;;;;;;;;5065038;28;20059;-83
2021/12/14 03:25:13;;;;;;;2.22;1.00;;;;;;;;;;5063704;28;20115;-83
2021/12/14 03:27:40;;;;;;;1.52;1.00;;;;;;;;;;5064794;28;20565;-84
2021/12/14 03:30:17;;;;;;;1.98;1.10;;;;;;;;;;5067314;28;20118;-82
2021/12/14 03:32:43;;;;;;;1.60;1.00;;;;;;;;;;5064163;28;20098;-84
2021/12/14 03:35:09;;;;;;;1.85;0.88;;;;;;;;;;5066696;28;20080;-84
2021/12/14 03:37:37;;;;;;;1.80;0.90;;;;;;;;;;5066993;28;20056;-80
2021/12/14 03:40:04;;;;;;;2.70;1.20;;;;;;;;;;5071048;28;20049;-84
2021/12/14 03:42:37;;;;;;;2.47;1.25;;;;;;;;;;5072812;28;20043;-83
2021/12/14 03:45:09;;;;;;;1.42;0.90;;;;;;;;;;5067519;28;20481;-83
2021/12/14 03:47:37;;;;;;;2.03;0.88;;;;;;;;;;5069364;28;20497;-84
2021/12/14 03:50:06;;;;;;;2.08;1.27;;;;;;;;;;5063080;28;21088;-84
2021/12/14 03:52:35;;;;;;;1.25;0.70;;;;;;;;;;5041301;28;20482;-83
2021/12/14 03:55:04;;;;;;;1.60;0.90;;;;;;;;;;5049070;28;20548;-83
2021/12/14 03:57:31;;;;;;;1.30;0.90;;;;;;;;;;5049809;28;20083;-83
2021/12/14 03:59:57;;;;;;;2.08;1.00;;;;;;;;;;5049004;28;20454;-83
2021/12/14 04:02:24;;;;;;;1.20;0.90;;;;;;;;;;5054680;28;20064;-83
2021/12/14 04:04:57;;;;;;;1.92;0.95;;;;;;;;;;5048758;28;20445;-82
2021/12/14 04:07:24;;;;;;;2.03;0.88;;;;;;;;;;5051013;28;20517;-83
2021/12/14 04:09:50;;;;;;;0.95;0.70;;;;;;;;;;5041808;28;20118;-84
2021/12/14 04:12:18;;;;;;;2.15;0.95;;;;;;;;;;5061788;28;20075;-83
2021/12/14 04:14:47;;;;;;;0.60;0.43;;;;;;;;;;5051926;28;20053;-83
2021/12/14 04:17:14;;;;;;;1.60;0.80;;;;;;;;;;5048112;28;20457;-78
2021/12/14 04:19:41;;;;;;;1.33;0.70;;;;;;;;;;5056673;28;20057;-79
2021/12/14 04:22:11;;;;;;;1.50;0.60;;;;;;;;;;5054686;28;20064;-79
2021/12/14 04:24:40;;;;;;;1.27;0.60;;;;;;;;;;5042290;28;20122;-79
2021/12/14 04:27:12;;;;;;;0.93;0.70;;;;;;;;;;5046870;28;20533;-80
2021/12/14 04:29:38;;;;;;;0.80;0.40;;;;;;;;;;5047791;28;20194;-79
2021/12/14 04:32:06;;;;;;;1.02;0.60;;;;;;;;;;5046313;28;20061;-79
2021/12/14 04:34:33;;;;;;;1.08;0.60;;;;;;;;;;5044393;28;20069;-79
2021/12/14 04:37:01;;;;;;;0.90;0.40;;;;;;;;;;5044253;28;20060;-79
2021/12/14 04:53:12;;;;;;;1.40;0.50;;;;;;;;;;5044562;28;20068;-82
2021/12/14 04:55:43;;;;;;;0.85;0.52;;;;;;;;;;5044947;28;20036;-79
2021/12/14 04:58:10;;;;;;;1.05;0.60;;;;;;;;;;5047291;28;20556;-80
2021/12/14 05:00:47;;;;;;;1.52;0.70;;;;;;;;;;5046360;28;20559;-79
2021/12/14 05:03:42;;;;;;;1.30;0.57;;;;;;;;;;5036976;28;20037;-80
2021/12/14 05:06:14;;;;;;;1.25;0.60;;;;;;;;;;5042192;28;20099;-80
2021/12/14 05:11:12;;;;;;;1.30;0.50;;;;;;;;;;5044690;28;20200;-80
2021/12/14 05:13:41;;;;;;;0.95;0.60;;;;;;;;;;5043951;28;20126;-80
2021/12/14 05:16:08;;;;;;;1.98;0.70;;;;;;;;;;5059536;28;20056;-79
2021/12/14 05:18:35;;;;;;;0.80;0.40;;;;;;;;;;5041678;28;20065;-78
2021/12/14 05:21:02;;;;;;;1.48;0.50;;;;;;;;;;5051436;28;20045;-78
2021/12/14 05:23:32;;;;;;;1.58;0.60;;;;;;;;;;5045527;28;20115;-80
2021/12/14 05:26:01;;;;;;;1.20;0.60;;;;;;;;;;5042860;28;20068;-79
2021/12/14 05:28:28;;;;;;;2.70;0.52;;;;;;;;;;5044681;28;20544;-79
2021/12/14 05:30:57;;;;;;;2.28;0.73;;;;;;;;;;5042240;28;20425;-84
2021/12/14 05:33:25;;;;;;;0.98;0.70;;;;;;;;;;5046054;28;20379;-81
2021/12/14 05:35:53;;;;;;;2.00;0.52;;;;;;;;;;5003294;28;1137829;-80
2021/12/14 05:38:26;;;;;;;2.28;0.65;;;;;;;;;;5040828;28;20068;-81
2021/12/14 05:43:22;;;;;;;1.27;0.65;;;;;;;;;;5052779;28;20057;-85
2021/12/14 05:45:52;;;;;;;1.75;0.80;;;;;;;;;;5048469;28;20063;-86
2021/12/14 05:48:23;;;;;;;2.97;0.43;;;;;;;;;;5045681;28;20060;-83
2021/12/14 05:50:50;;;;;;;;;;;;;;;;;;5045934;28;20106;-82
2021/12/14 05:53:24;;;;;;;0.73;0.30;;;;;;;;;;5046055;28;19917;-83
2021/12/14 05:55:51;;;;;;;0.60;0.40;;;;;;;;;;5046516;28;20033;-82
2021/12/14 05:58:19;;;;;;;1.17;0.52;;;;;;;;;;5042880;28;20053;-84
2021/12/14 06:00:48;;;;;;;1.27;0.60;;;;;;;;;;5043073;28;20493;-84
2021/12/14 06:03:41;;;;;;;0.60;0.40;;;;;;;;;;5044656;28;20098;-83
2021/12/14 06:06:37;;;;;;;1.50;0.50;;;;;;;;;;5043756;28;21208;-83
2021/12/14 06:09:24;;;;;;;1.25;0.65;;;;;;;;;;5033125;28;20053;-84
2021/12/14 06:11:54;;;;;;;0.52;0.38;;;;;;;;;;5046432;28;20052;-82
2021/12/14 06:14:22;;;;;;;1.70;0.60;;;;;;;;;;5051448;28;20061;-86
2021/12/14 06:16:49;;;;;;;1.98;0.50;;;;;;;;;;5045317;28;20530;-85
2021/12/14 06:19:33;;;;;;;1.40;0.60;;;;;;;;;;5027348;28;20068;-87
2021/12/14 06:22:02;;;;;;;0.63;0.50;;;;;;;;;;5062291;28;20135;-87
2021/12/14 06:24:30;;;;;;;1.60;0.50;;;;;;;;;;5072910;28;20071;-86
2021/12/14 06:26:59;;;;;;;1.90;0.63;;;;;;;;;;5070055;28;20107;-86
2021/12/14 06:29:35;;;;;;;0.98;0.47;;;;;;;;;;5067638;28;20125;-85
2021/12/14 06:32:07;;;;;;;1.77;0.40;;;;;;;;;;5056697;28;20029;-87
2021/12/14 06:34:34;;;;;;;0.57;0.43;;;;;;;;;;5061909;28;20072;-86
2021/12/14 06:40:11;;;;;;;1.05;0.47;;;;;;;;;;5068515;28;20052;-86
2021/12/14 06:42:40;;;;;;;0.95;0.40;;;;;;;;;;5063045;28;20029;-87
2021/12/14 06:45:17;;;;;;;0.82;0.50;;;;;;;;;;5067479;28;20086;-86
2021/12/14 06:47:44;;;;;;;2.35;0.70;;;;;;;;;;5066133;28;20064;-87
2021/12/14 06:50:13;;;;;;;1.45;0.50;;;;;;;;;;5069651;28;20114;-85
2021/12/14 06:52:39;;;;;;;1.05;0.40;;;;;;;;;;5068169;28;20052;-83
2021/12/14 06:55:06;;;;;;;1.30;0.50;;;;;;;;;;5051611;28;20040;-83
2021/12/14 06:57:33;;;;;;;1.38;0.60;;;;;;;;;;5071308;28;20055;-85
2021/12/14 06:59:59;;;;;;;1.85;0.50;;;;;;;;;;5061641;28;20770;-82
2021/12/14 07:02:26;;;;;;;0.85;0.47;;;;;;;;;;5067935;28;20052;-83
2021/12/14 07:04:53;;;;;;;1.38;0.43;;;;;;;;;;5046224;28;20508;-81
2021/12/14 07:07:21;;;;;;;2.08;0.50;;;;;;;;;;5068393;28;20060;-80
2021/12/14 07:09:50;;;;;;;2.85;0.65;;;;;;;;;;5065044;28;20052;-81
2021/12/14 07:12:21;;;;;;;1.85;0.38;;;;;;;;;;5061213;28;20527;-82
2021/12/14 07:14:51;;;;;;;0.40;0.30;;;;;;;;;;5043521;28;20324;-82
2021/12/14 07:17:29;;;;;;;1.52;0.80;;;;;;;;;;5065382;28;20036;-82
2021/12/14 07:20:01;;;;;;;1.58;0.60;;;;;;;;;;5047724;28;20090;-82
2021/12/14 07:22:31;;;;;;;2.22;0.60;;;;;;;;;;5036000;28;20071;-81
2021/12/14 07:25:00;;;;;;;0.75;0.47;;;;;;;;;;5067275;28;20072;-81
2021/12/14 07:27:37;;;;;;;1.83;0.68;;;;;;;;;;5049826;28;20057;-81
2021/12/14 07:30:20;;;;;;;2.63;0.50;;;;;;;;;;5064496;28;21351;-81
2021/12/14 07:32:49;;;;;;;1.67;0.43;;;;;;;;;;5063434;28;20114;-81
2021/12/14 07:35:21;;;;;;;2.13;0.40;;;;;;;;;;5063822;28;20096;-81
2021/12/14 07:37:48;;;;;;;0.50;0.40;;;;;;;;;;5067100;28;20067;-81
2021/12/14 07:40:15;;;;;;;1.23;0.43;;;;;;;;;;5066287;28;20068;-82
2021/12/14 07:42:42;;;;;;;1.27;0.50;;;;;;;;;;5064890;28;20075;-81
2021/12/14 07:45:09;;;;;;;1.42;0.40;;;;;;;;;;5044664;28;20064;-81
2021/12/14 07:47:35;;;;;;;0.98;0.43;;;;;;;;;;5063488;28;20056;-82
2021/12/14 07:50:04;;;;;;;1.25;0.50;;;;;;;;;;5063589;28;20032;-82
2021/12/14 07:52:35;;;;;;;1.30;0.60;;;;;;;;;;5062776;28;20113;-84
2021/12/14 07:55:09;;;;;;;1.50;0.40;;;;;;;;;;5063330;28;20560;-81
2021/12/14 07:57:37;;;;;;;0.77;0.40;;;;;;;;;;5027973;28;20063;-81
2021/12/14 08:00:09;;;;;;;1.20;0.60;;;;;;;;;;5064039;28;20052;-82
2021/12/14 08:02:39;;;;;;;1.42;0.55;;;;;;;;;;5065700;28;20060;-83
2021/12/14 08:05:22;;;;;;;1.65;0.55;;;;;;;;;;5062199;28;20068;-83
2021/12/14 08:07:54;;;;;;;0.88;0.30;;;;;;;;;;5063894;28;20072;-81
2021/12/14 08:10:24;;;;;;;1.50;0.80;;;;;;;;;;5048021;28;20106;-82
2021/12/14 08:12:52;;;;;;;2.15;0.60;;;;;;;;;;5063196;28;20048;-81
2021/12/14 08:15:21;;;;;;;1.30;0.45;;;;;;;;;;5070498;28;20040;-82
2021/12/14 08:17:58;;;;;;;0.90;0.40;;;;;;;;;;5070024;28;20566;-82
2021/12/14 08:20:26;;;;;;;1.83;0.57;;;;;;;;;;5071865;28;20037;-82
2021/12/14 08:22:53;;;;;;;0.88;0.50;;;;;;;;;;5057046;28;20028;-81
2021/12/14 08:25:24;;;;;;;0.95;0.38;;;;;;;;;;5036763;28;20052;-81
2021/12/14 08:28:00;;;;;;;1.83;0.73;;;;;;;;;;5047858;28;20072;-84
2021/12/14 08:30:28;;;;;;;1.65;0.55;;;;;;;;;;5066500;28;20461;-82
2021/12/14 08:32:54;;;;;;;0.70;0.40;;;;;;;;;;5069203;28;20771;-82
2021/12/14 08:35:20;;;;;;;2.85;0.60;;;;;;;;;;5069484;28;20086;-82
2021/12/14 08:37:51;;;;;;;0.70;0.40;;;;;;;;;;5063665;28;20517;-80
2021/12/14 08:40:32;;;;;;;1.83;0.60;;;;;;;;;;5068059;28;20110;-79
2021/12/14 08:43:08;;;;;;;0.80;0.40;;;;;;;;;;5040770;28;20068;-80
2021/12/14 08:45:39;;;;;;;1.55;0.60;;;;;;;;;;5054536;28;20050;-81
2021/12/14 08:48:08;;;;;;;1.67;0.60;;;;;;;;;;5049126;28;22626;-82
2021/12/14 08:51:03;;;;;;;1.40;0.65;;;;;;;;;;5060353;28;20560;-80
2021/12/14 08:53:33;;;;;;;1.63;0.50;;;;;;;;;;5047337;28;20301;-82
2021/12/14 08:56:01;;;;;;;1.52;0.50;;;;;;;;;;5074075;28;20632;-81
2021/12/14 08:58:28;;;;;;;1.65;0.47;;;;;;;;;;5069870;28;20040;-81
2021/12/14 09:00:56;;;;;;;1.52;0.43;;;;;;;;;;5049897;28;20060;-81
2021/12/14 09:03:31;;;;;;;1.45;0.40;;;;;;;;;;5042446;28;20072;-81
2021/12/14 09:06:03;;;;;;;1.20;0.50;;;;;;;;;;5071425;28;20040;-82
2021/12/14 09:08:31;;;;;;;2.15;0.57;;;;;;;;;;5069303;28;20064;-80
2021/12/14 09:11:00;;;;;;;0.73;0.32;;;;;;;;;;5067706;28;20032;-81
2021/12/14 09:13:27;;;;;;;2.08;0.57;;;;;;;;;;5069466;28;20106;-81
2021/12/14 09:16:14;;;;;;;1.85;0.52;;;;;;;;;;5047702;28;20036;-80
2021/12/14 09:18:42;;;;;;;1.23;0.45;;;;;;;;;;5080033;28;20094;-80
2021/12/14 09:21:14;;;;;;;2.05;0.80;;;;;;;;;;5079633;28;20041;-81
2021/12/14 09:23:43;;;;;;;1.00;0.50;;;;;;;;;;5070193;28;20041;-80
2021/12/14 09:26:18;;;;;;;0.68;0.47;;;;;;;;;;5070217;28;20044;-81
2021/12/14 09:28:45;;;;;;;2.00;0.70;;;;;;;;;;5049697;28;20059;-80
2021/12/14 09:31:15;;;;;;;1.70;0.65;;;;;;;;;;5071218;28;20036;-81
2021/12/14 09:33:42;;;;;;;1.55;0.85;;;;;;;;;;5065936;28;20051;-81
2021/12/14 09:36:12;;;;;;;2.38;1.20;;;;;;;;;;5062274;28;20056;-81
2021/12/14 09:38:41;;;;;;;2.50;1.33;;;;;;;;;;5066334;28;20420;-80
2021/12/14 09:41:09;;;;;;;4.07;2.63;;;;;;;;;;5064258;28;20061;-81
2021/12/14 09:43:36;;;;;;;4.80;2.47;;;;;;;;;;5066940;28;20090;-81
2021/12/14 09:46:03;;;;;;;7.68;4.30;;;;;;;;;;5044134;28;20564;-79
2021/12/14 09:48:34;;;;;;;8.30;4.43;;;;;;;;;;5046589;28;20106;-80
2021/12/14 09:51:07;;;;;;;8.03;4.90;;;;;;;;;;5048374;28;20037;-80
2021/12/14 09:53:35;;;;;;;14.73;7.35;;;;;;;;;;5046523;28;20826;-80
2021/12/14 09:56:03;;;;;;;12.05;7.18;;;;;;;;;;5049917;28;20033;-80
2021/12/14 09:58:32;;;;;;;15.48;8.35;;;;;;;;;;5049799;28;20499;-80
2021/12/14 10:01:02;;;;;;;16.10;9.50;;;;;;;;;;5045295;28;20053;-80
2021/12/14 10:03:29;;;;;;;13.80;9.15;;;;;;;;;;5035959;28;20074;-80
2021/12/14 10:05:59;;;;;;;12.13;8.98;;;;;;;;;;5046403;28;20041;-80
2021/12/14 10:08:30;;;;;;;16.30;10.15;;;;;;;;;;5045357;28;20065;-79
2021/12/14 10:11:05;;;;;;;18.08;11.18;;;;;;;;;;5048052;28;20060;-80
2021/12/14 10:13:33;;;;;;;19.95;11.77;;;;;;;;;;5046950;28;20053;-80
2021/12/14 10:16:00;;;;;;;15.30;9.88;;;;;;;;;;5037156;28;20061;-80
2021/12/14 10:18:31;;;;;;;23.00;14.13;;;;;;;;;;5044634;28;20056;-82
2021/12/14 10:21:12;;;;;;;21.25;12.75;;;;;;;;;;5044883;28;20498;-80
2021/12/14 10:23:40;;;;;;;17.93;11.37;;;;;;;;;;5045380;28;20060;-81
2021/12/14 10:26:06;;;;;;;14.30;9.95;;;;;;;;;;5044672;28;20434;-80
2021/12/14 10:28:34;;;;;;;17.25;12.45;;;;;;;;;;5042896;28;20102;-79
2021/12/14 10:31:03;;;;;;;17.48;10.20;;;;;;;;;;5055998;28;20056;-80
2021/12/14 10:33:32;;;;;;;14.48;10.07;;;;;;;;;;5053635;28;20056;-80
2021/12/14 10:36:03;;;;;;;21.15;14.02;;;;;;;;;;5047568;28;20469;-82
2021/12/14 10:38:34;;;;;;;18.15;12.20;;;;;;;;;;5045502;28;20087;-81
2021/12/14 10:43:46;;;;;;;12.57;8.43;;;;;;;;;;5044728;28;20392;-79
2021/12/14 10:46:17;;;;;;;12.00;8.52;;;;;;;;;;5046579;28;20132;-81
2021/12/14 10:48:45;;;;;;;16.10;10.23;;;;;;;;;;5045624;28;20111;-78
2021/12/14 10:51:12;;;;;;;22.45;13.90;;;;;;;;;;5047923;28;20068;-80
2021/12/14 10:53:45;;;;;;;18.52;10.63;;;;;;;;;;5044278;28;20048;-79
2021/12/14 10:56:14;;;;;;;16.10;9.25;;;;;;;;;;5048848;28;20066;-80
2021/12/14 10:58:41;;;;;;;12.82;8.30;;;;;;;;;;5048947;28;20129;-78
2021/12/14 11:01:10;;;;;;;19.35;12.45;;;;;;;;;;5041935;28;20130;-79
2021/12/14 11:03:42;;;;;;;18.20;10.43;;;;;;;;;;5043621;28;20107;-81
2021/12/14 11:06:12;;;;;;;17.95;11.77;;;;;;;;;;5045490;28;20310;-80
2021/12/14 11:08:56;;;;;;;19.33;11.55;;;;;;;;;;5044657;28;20495;-78
2021/12/14 11:11:59;;;;;;;12.02;8.43;;;;;;;;;;5044163;28;20045;-80
2021/12/14 11:14:28;;;;;;;19.50;12.63;;;;;;;;;;5036740;28;20077;-80
2021/12/14 11:19:44;;;;;;;17.55;10.20;;;;;;;;;;5067805;28;20668;-80
2021/12/14 11:22:14;;;;;;;20.90;12.50;;;;;;;;;;5061970;28;20126;-80
2021/12/14 11:24:42;;;;;;;14.93;9.85;;;;;;;;;;5065791;28;20540;-80
2021/12/14 11:27:13;;;;;;;18.88;11.95;;;;;;;;;;5065153;28;20052;-81
2021/12/14 11:29:40;;;;;;;;;;;;;;;;;;5049099;28;20064;-81
2021/12/14 11:32:07;;;;;;;15.85;11.30;;;;;;;;;;5068371;28;20499;-81
2021/12/14 11:34:36;;;;;;;26.00;14.55;;;;;;;;;;5056059;28;20072;-81
2021/12/14 11:37:07;;;;;;;14.43;10.27;;;;;;;;;;5066766;28;20050;-81
2021/12/14 11:39:38;;;;;;;15.10;9.48;;;;;;;;;;5068303;28;20116;-81
2021/12/14 11:42:05;;;;;;;15.38;10.88;;;;;;;;;;5058782;28;22412;-80
2021/12/14 11:44:31;;;;;;;20.13;13.65;;;;;;;;;;5045470;28;20032;-79
2021/12/14 11:47:04;;;;;;;17.15;11.35;;;;;;;;;;5069682;28;20606;-79
2021/12/14 11:50:00;;;;;;;21.55;13.05;;;;;;;;;;5065462;28;20041;-80
2021/12/14 11:52:32;;;;;;;19.40;12.70;;;;;;;;;;5052006;28;20437;-80
2021/12/14 11:54:59;;;;;;;18.95;11.55;;;;;;;;;;5055382;28;20037;-78
2021/12/14 11:57:32;;;;;;;19.08;12.73;;;;;;;;;;5062127;28;20055;-78
2021/12/14 12:00:05;;;;;;;15.40;10.85;;;;;;;;;;5071918;28;20060;-78
2021/12/14 12:02:32;;;;;;;15.63;10.75;;;;;;;;;;5071168;28;20052;-77
2021/12/14 12:04:58;;;;;;;17.35;12.55;;;;;;;;;;5057716;28;20060;-77
2021/12/14 12:10:10;;;;;;;27.23;15.07;;;;;;;;;;5056953;28;20041;-78
2021/12/14 12:12:38;;;;;;;13.23;8.75;;;;;;;;;;5073209;28;20082;-78
2021/12/14 12:15:05;;;;;;;17.55;11.65;;;;;;;;;;5049168;28;21215;-78
2021/12/14 12:17:37;;;;;;;16.98;11.05;;;;;;;;;;5043608;28;20049;-78
2021/12/14 12:20:05;;;;;;;22.40;14.57;;;;;;;;;;5050034;28;22016;-78
2021/12/14 12:22:37;;;;;;;22.63;12.38;;;;;;;;;;5051561;28;20087;-78
2021/12/14 12:25:07;;;;;;;16.95;11.13;;;;;;;;;;5068335;28;20946;-80
2021/12/14 12:27:35;;;;;;;17.33;10.77;;;;;;;;;;5048715;28;20041;-79
2021/12/14 12:30:12;;;;;;;17.90;11.52;;;;;;;;;;5066347;28;20063;-79
2021/12/14 12:32:39;;;;;;;15.35;9.85;;;;;;;;;;5063842;28;20063;-78
2021/12/14 12:35:22;;;;;;;15.63;10.63;;;;;;;;;;5049305;28;20045;-79
2021/12/14 12:37:49;;;;;;;24.02;15.55;;;;;;;;;;5047784;28;20056;-80
2021/12/14 12:40:18;;;;;;;17.67;13.20;;;;;;;;;;5077926;28;20047;-81
2021/12/14 12:42:45;;;;;;;22.65;15.25;;;;;;;;;;5074557;28;20385;-79
2021/12/14 12:45:34;;;;;;;21.67;13.55;;;;;;;;;;5075097;28;20066;-79
2021/12/14 12:48:01;;;;;;;25.17;17.00;;;;;;;;;;5082383;28;20118;-80
2021/12/14 12:50:28;;;;;;;21.38;14.07;;;;;;;;;;5091634;28;20051;-82
2021/12/14 12:52:55;;;;;;;17.83;11.15;;;;;;;;;;5092669;28;20059;-79
2021/12/14 12:55:31;;;;;;;18.10;11.20;;;;;;;;;;5089084;28;20029;-80
2021/12/14 12:58:05;;;;;;;17.65;11.63;;;;;;;;;;5091168;28;20032;-81
2021/12/14 13:00:38;;;;;;;20.75;12.80;;;;;;;;;;5057889;28;20046;-80
2021/12/14 13:03:12;;;;;;;19.80;11.52;;;;;;;;;;5083191;28;20054;-80
2021/12/14 13:05:42;;;;;;;22.60;14.52;;;;;;;;;;5097006;28;20066;-76
2021/12/14 13:08:16;;;;;;;23.38;13.95;;;;;;;;;;5090848;28;20090;-81
2021/12/14 13:10:48;;;;;;;19.70;12.48;;;;;;;;;;5056914;28;20028;-78
2021/12/14 13:13:17;;;;;;;16.00;11.23;;;;;;;;;;5089465;28;20064;-81
2021/12/14 13:15:56;;;;;;;17.65;12.02;;;;;;;;;;5074971;28;20032;-80
2021/12/14 13:18:24;;;;;;;18.00;11.95;;;;;;;;;;5072648;28;20397;-81
2021/12/14 13:20:55;;;;;;;16.67;11.50;;;;;;;;;;5072585;28;20044;-80
2021/12/14 13:23:23;;;;;;;22.75;14.65;;;;;;;;;;5072599;28;20442;-80
2021/12/14 13:25:50;;;;;;;27.40;18.80;;;;;;;;;;5065416;28;20060;-80
2021/12/14 13:28:17;;;;;;;18.00;13.00;;;;;;;;;;5068018;28;20091;-83
2021/12/14 13:30:44;;;;;;;29.42;19.05;;;;;;;;;;5068840;28;20036;-81
2021/12/14 13:33:26;;;;;;;23.80;16.75;;;;;;;;;;5051472;28;20060;-80
2021/12/14 13:35:53;;;;;;;23.00;15.68;;;;;;;;;;5062895;28;20527;-81
2021/12/14 13:38:19;;;;;;;21.55;14.10;;;;;;;;;;5067837;28;20056;-81
2021/12/14 13:40:48;;;;;;;18.90;12.55;;;;;;;;;;5068213;28;20032;-80
2021/12/14 13:43:17;;;;;;;24.90;16.38;;;;;;;;;;5067954;28;20056;-80
2021/12/14 13:45:49;;;;;;;21.58;13.18;;;;;;;;;;5068244;28;20056;-81
2021/12/14 13:48:20;;;;;;;17.63;11.60;;;;;;;;;;5064847;28;20090;-81
2021/12/14 13:50:49;;;;;;;17.05;10.90;;;;;;;;;;5066556;28;20064;-80
2021/12/14 13:53:16;;;;;;;25.23;15.88;;;;;;;;;;5067535;28;20491;-80
2021/12/14 13:55:44;;;;;;;16.50;10.90;;;;;;;;;;5060573;28;20503;-80
2021/12/14 13:58:16;;;;;;;28.08;17.55;;;;;;;;;;5066858;28;20056;-81
2021/12/14 14:01:01;;;;;;;20.10;12.75;;;;;;;;;;5067683;28;20059;-80
2021/12/14 14:03:29;;;;;;;18.13;12.90;;;;;;;;;;5066018;28;20045;-80
2021/12/14 14:05:57;;;;;;;15.73;11.40;;;;;;;;;;5065387;28;20048;-80
2021/12/14 14:08:29;;;;;;;24.73;14.95;;;;;;;;;;5043276;28;20064;-80
2021/12/14 14:10:56;;;;;;;15.05;9.68;;;;;;;;;;5064473;28;20059;-81
2021/12/14 14:13:30;;;;;;;12.77;9.65;;;;;;;;;;5065317;28;20061;-82
2021/12/14 14:15:57;;;;;;;13.30;9.15;;;;;;;;;;5046329;28;20747;-79
2021/12/14 14:18:29;;;;;;;13.90;9.98;;;;;;;;;;5061776;28;20109;-81
2021/12/14 14:20:55;;;;;;;;;;;;;;;;;;5063402;28;20059;-81
2021/12/14 14:23:24;;;;;;;20.35;13.90;;;;;;;;;;5062228;28;19960;-81
2021/12/14 14:25:57;;;;;;;20.02;12.27;;;;;;;;;;5063854;28;20035;-81
2021/12/14 14:28:36;;;;;;;26.58;17.27;;;;;;;;;;5065099;28;20075;-82
2021/12/14 14:31:05;;;;;;;28.27;17.88;;;;;;;;;;5065436;28;20118;-81
2021/12/14 14:34:04;;;;;;;20.80;14.50;;;;;;;;;;5063213;28;20109;-81
2021/12/14 14:36:40;;;;;;;17.75;12.57;;;;;;;;;;5003976;28;20037;-82
2021/12/14 14:39:12;;;;;;;16.67;12.82;;;;;;;;;;5045453;28;20040;-82
2021/12/14 14:41:58;;;;;;;18.35;10.55;;;;;;;;;;5044293;28;20068;-82
2021/12/14 14:44:28;;;;;;;21.67;14.80;;;;;;;;;;5040961;28;20115;-83
2021/12/14 14:46:57;;;;;;;14.05;10.27;;;;;;;;;;5038113;28;20137;-82
2021/12/14 14:49:36;;;;;;;17.60;12.35;;;;;;;;;;5051403;28;20123;-80
2021/12/14 14:52:16;;;;;;;18.52;13.05;;;;;;;;;;5021079;28;20029;-79
2021/12/14 14:54:44;;;;;;;26.70;16.30;;;;;;;;;;5041537;28;20057;-78
2021/12/14 14:57:10;;;;;;;17.10;12.20;;;;;;;;;;5050475;28;20067;-79
2021/12/14 14:59:38;;;;;;;20.95;14.07;;;;;;;;;;5058463;28;20059;-79
2021/12/14 15:02:05;;;;;;;22.80;14.07;;;;;;;;;;5042907;28;20659;-80
2021/12/14 15:04:52;;;;;;;14.20;9.50;;;;;;;;;;5058017;28;20064;-79
2021/12/14 15:07:18;;;;;;;19.20;12.80;;;;;;;;;;5042645;28;20741;-79
2021/12/14 15:09:46;;;;;;;19.15;12.98;;;;;;;;;;5042753;28;20040;-79
2021/12/14 15:12:20;;;;;;;22.13;14.32;;;;;;;;;;5045970;28;20114;-79
2021/12/14 15:14:46;;;;;;;23.50;16.92;;;;;;;;;;5043733;28;20614;-79
2021/12/14 15:17:22;;;;;;;24.30;15.85;;;;;;;;;;5044541;28;20118;-78
2021/12/14 15:19:50;;;;;;;20.77;13.52;;;;;;;;;;5046123;28;20141;-78
2021/12/14 15:22:28;;;;;;;27.75;18.38;;;;;;;;;;5035472;28;20072;-79
2021/12/14 15:25:02;;;;;;;27.27;17.40;;;;;;;;;;5048450;28;20060;-79
2021/12/14 15:27:34;;;;;;;19.85;13.73;;;;;;;;;;5046012;28;20069;-80
2021/12/14 15:30:19;;;;;;;20.95;13.82;;;;;;;;;;5045103;28;20033;-80
2021/12/14 15:32:55;;;;;;;18.52;13.10;;;;;;;;;;5056934;28;20094;-80
2021/12/14 15:35:33;;;;;;;24.15;15.00;;;;;;;;;;5051123;28;20094;-79
2021/12/14 15:38:06;;;;;;;23.85;15.55;;;;;;;;;;5047458;28;20056;-79